Terminal Aerodrome Forecast
Issued by NWS Boston, MA

Home | Current Version | Previous Version | Text Only | Print | Product List | Glossary On
Versions: 1 2 3 4 5 6 7 8 9 10 11 12 13 14 15 16 17 18 19 20 21 22 23 24 25 26 27 28 29 30 31 32 33 34 35 36 37 38 39 40 41 42 43 44 45
000
FTUS41 KBOX 181120
TAFPVD
TAF
KPVD 181120Z 1812/1912 18006KT P6SM VCSH OVC006
     FM181400 17010KT 6SM -SHRA BR OVC008
     FM181600 17010G19KT P6SM -SHRA VCTS OVC008CB
     FM182200 18011G20KT 3SM -SHRA BR VCTS OVC008CB
     FM190500 19007KT 5SM BR VCSH BKN010=

USA.gov is the U.S. government's official web portal to all federal, state and local government web resources and services.